CA-0572 weather

Goderich Municipal Airport
Goderich, Ontario, Canada

Public forecast

Using degrees Celsius for public forecast. Weather courtesy of forecast.io.

Closest aviation weather report (METAR) to Goderich Municipal Airport

Closest report is London Airport, 50.2 nm (93.0 km) SSE. Retrieved 2019/10/14 02:00 UTC (46 minutes ago):

CYXU 140200Z 33009G15KT 15SM OVC095 08/05 A2986 RMK AS8 SLP118

Closest aviation forecast (TAF) to Goderich Municipal Airport

Closest forecast is London Airport, 50.2 nm (93.0 km) SSE. Retrieved 2019-10-14 00:42 UTC (2 hours ago):

TAF CYXU 132338Z 1400/1424 21012G22KT P6SM SCT060 FM140500 28010G20KT P6SM OVC050 TEMPO 1405/1410 P6SM -SHRA FM141000 26012KT P6SM FEW010 SCT030 FM141500 27012G22KT P6SM BKN040 RMK NXT FCST BY 140600Z